sensor_id;sensor_type;location;lat;lon;timestamp;temperature;humidity
9730;DHT22;4904;49.152;11.004;2023-04-12T00:00:16;5.90;99.90
9730;DHT22;4904;49.152;11.004;2023-04-12T00:02:44;5.90;99.90
9730;DHT22;4904;49.152;11.004;2023-04-12T00:05:11;5.90;99.90
9730;DHT22;4904;49.152;11.004;2023-04-12T00:07:38;5.90;99.90
9730;DHT22;4904;49.152;11.004;2023-04-12T00:10:08;6.00;99.90
9730;DHT22;4904;49.152;11.004;2023-04-12T00:12:35;6.00;99.90
9730;DHT22;4904;49.152;11.004;2023-04-12T00:15:02;6.00;99.90
9730;DHT22;4904;49.152;11.004;2023-04-12T00:17:30;6.10;99.90
9730;DHT22;4904;49.152;11.004;2023-04-12T00:19:57;6.20;99.90
9730;DHT22;4904;49.152;11.004;2023-04-12T00:22:24;6.30;99.90
9730;DHT22;4904;49.152;11.004;2023-04-12T00:24:51;6.30;99.90
9730;DHT22;4904;49.152;11.004;2023-04-12T00:27:18;6.30;99.90
9730;DHT22;4904;49.152;11.004;2023-04-12T00:29:45;6.30;99.90
9730;DHT22;4904;49.152;11.004;2023-04-12T00:32:11;6.20;99.90
9730;DHT22;4904;49.152;11.004;2023-04-12T00:34:39;6.30;99.90
9730;DHT22;4904;49.152;11.004;2023-04-12T00:37:07;6.40;99.90
9730;DHT22;4904;49.152;11.004;2023-04-12T00:39:33;6.50;99.90
9730;DHT22;4904;49.152;11.004;2023-04-12T00:42:02;6.50;99.90
9730;DHT22;4904;49.152;11.004;2023-04-12T00:44:30;6.50;99.90
9730;DHT22;4904;49.152;11.004;2023-04-12T00:46:57;6.30;99.90
9730;DHT22;4904;49.152;11.004;2023-04-12T00:49:24;6.20;99.90
9730;DHT22;4904;49.152;11.004;2023-04-12T00:51:59;6.10;99.90
9730;DHT22;4904;49.152;11.004;2023-04-12T00:54:28;6.20;99.90
9730;DHT22;4904;49.152;11.004;2023-04-12T00:56:55;6.10;99.90
9730;DHT22;4904;49.152;11.004;2023-04-12T00:59:22;6.20;99.90
9730;DHT22;4904;49.152;11.004;2023-04-12T01:01:49;6.00;99.90
9730;DHT22;4904;49.152;11.004;2023-04-12T01:04:17;6.10;99.90
9730;DHT22;4904;49.152;11.004;2023-04-12T01:06:58;6.20;99.90
9730;DHT22;4904;49.152;11.004;2023-04-12T01:09:34;6.30;99.90
9730;DHT22;4904;49.152;11.004;2023-04-12T01:12:08;6.30;99.90
9730;DHT22;4904;49.152;11.004;2023-04-12T01:14:44;6.40;99.90
9730;DHT22;4904;49.152;11.004;2023-04-12T01:17:18;6.40;99.90
9730;DHT22;4904;49.152;11.004;2023-04-12T01:19:53;6.40;99.90
9730;DHT22;4904;49.152;11.004;2023-04-12T01:22:44;6.40;99.90
9730;DHT22;4904;49.152;11.004;2023-04-12T01:25:23;6.40;99.90
9730;DHT22;4904;49.152;11.004;2023-04-12T01:27:56;6.20;99.90
9730;DHT22;4904;49.152;11.004;2023-04-12T01:30:27;6.20;99.90
9730;DHT22;4904;49.152;11.004;2023-04-12T01:32:56;6.20;99.90
9730;DHT22;4904;49.152;11.004;2023-04-12T01:35:27;6.30;99.90
9730;DHT22;4904;49.152;11.004;2023-04-12T01:37:56;6.30;99.90
9730;DHT22;4904;49.152;11.004;2023-04-12T01:40:25;6.30;99.90
9730;DHT22;4904;49.152;11.004;2023-04-12T01:43:04;6.30;99.90
9730;DHT22;4904;49.152;11.004;2023-04-12T01:45:31;6.30;99.90
9730;DHT22;4904;49.152;11.004;2023-04-12T01:47:58;6.40;99.90
9730;DHT22;4904;49.152;11.004;2023-04-12T01:50:33;6.40;99.90
9730;DHT22;4904;49.152;11.004;2023-04-12T01:53:06;6.50;99.90
9730;DHT22;4904;49.152;11.004;2023-04-12T01:55:36;6.50;99.90
9730;DHT22;4904;49.152;11.004;2023-04-12T01:58:06;6.50;99.90
9730;DHT22;4904;49.152;11.004;2023-04-12T02:00:36;6.70;99.90
9730;DHT22;4904;49.152;11.004;2023-04-12T02:03:04;6.70;99.90
9730;DHT22;4904;49.152;11.004;2023-04-12T02:05:31;6.70;99.90
9730;DHT22;4904;49.152;11.004;2023-04-12T02:08:01;6.50;99.90
9730;DHT22;4904;49.152;11.004;2023-04-12T02:10:28;6.20;99.90
9730;DHT22;4904;49.152;11.004;2023-04-12T02:12:57;6.10;99.90
9730;DHT22;4904;49.152;11.004;2023-04-12T02:15:25;6.00;99.90
9730;DHT22;4904;49.152;11.004;2023-04-12T02:17:53;6.10;99.90
9730;DHT22;4904;49.152;11.004;2023-04-12T02:20:21;6.00;99.90
9730;DHT22;4904;49.152;11.004;2023-04-12T02:22:48;6.00;99.90
9730;DHT22;4904;49.152;11.004;2023-04-12T02:25:15;6.00;99.90
9730;DHT22;4904;49.152;11.004;2023-04-12T02:27:43;6.00;99.90
9730;DHT22;4904;49.152;11.004;2023-04-12T02:30:11;6.00;99.90
9730;DHT22;4904;49.152;11.004;2023-04-12T02:32:39;5.90;99.90
9730;DHT22;4904;49.152;11.004;2023-04-12T02:35:10;6.00;99.90
9730;DHT22;4904;49.152;11.004;2023-04-12T02:37:37;6.10;99.90
9730;DHT22;4904;49.152;11.004;2023-04-12T02:40:04;6.10;99.90
9730;DHT22;4904;49.152;11.004;2023-04-12T02:42:34;6.20;99.90
9730;DHT22;4904;49.152;11.004;2023-04-12T02:45:01;6.30;99.90
9730;DHT22;4904;49.152;11.004;2023-04-12T02:47:28;6.30;99.90
9730;DHT22;4904;49.152;11.004;2023-04-12T02:49:56;6.40;99.90
9730;DHT22;4904;49.152;11.004;2023-04-12T02:52:23;6.40;99.90
9730;DHT22;4904;49.152;11.004;2023-04-12T02:54:50;6.40;99.90
9730;DHT22;4904;49.152;11.004;2023-04-12T02:57:17;6.50;99.90
9730;DHT22;4904;49.152;11.004;2023-04-12T02:59:46;6.50;99.90
9730;DHT22;4904;49.152;11.004;2023-04-12T03:02:13;6.40;99.90
9730;DHT22;4904;49.152;11.004;2023-04-12T03:04:40;6.40;99.90
9730;DHT22;4904;49.152;11.004;2023-04-12T03:07:13;6.40;99.90
9730;DHT22;4904;49.152;11.004;2023-04-12T03:09:39;6.40;99.90
9730;DHT22;4904;49.152;11.004;2023-04-12T03:12:07;6.40;99.90
9730;DHT22;4904;49.152;11.004;2023-04-12T03:14:34;6.40;99.90
9730;DHT22;4904;49.152;11.004;2023-04-12T03:17:01;6.40;99.90
9730;DHT22;4904;49.152;11.004;2023-04-12T03:19:28;6.40;99.90
9730;DHT22;4904;49.152;11.004;2023-04-12T03:21:57;6.40;99.90
9730;DHT22;4904;49.152;11.004;2023-04-12T03:24:26;6.40;99.90
9730;DHT22;4904;49.152;11.004;2023-04-12T03:26:53;6.40;99.90
9730;DHT22;4904;49.152;11.004;2023-04-12T03:29:20;6.40;99.90
9730;DHT22;4904;49.152;11.004;2023-04-12T03:31:47;6.40;99.90
9730;DHT22;4904;49.152;11.004;2023-04-12T03:34:14;6.30;99.90
9730;DHT22;4904;49.152;11.004;2023-04-12T03:36:41;6.30;99.90
9730;DHT22;4904;49.152;11.004;2023-04-12T03:39:08;6.20;99.90
9730;DHT22;4904;49.152;11.004;2023-04-12T03:41:36;6.40;99.90
9730;DHT22;4904;49.152;11.004;2023-04-12T03:44:03;6.40;99.90
9730;DHT22;4904;49.152;11.004;2023-04-12T03:46:30;6.30;99.90
9730;DHT22;4904;49.152;11.004;2023-04-12T03:48:56;6.40;99.90
9730;DHT22;4904;49.152;11.004;2023-04-12T03:51:24;6.30;99.90
9730;DHT22;4904;49.152;11.004;2023-04-12T03:53:51;6.40;99.90
9730;DHT22;4904;49.152;11.004;2023-04-12T03:56:19;6.40;99.90
9730;DHT22;4904;49.152;11.004;2023-04-12T03:58:47;6.50;99.90
9730;DHT22;4904;49.152;11.004;2023-04-12T04:01:14;6.50;99.90
9730;DHT22;4904;49.152;11.004;2023-04-12T04:03:42;6.50;99.90
9730;DHT22;4904;49.152;11.004;2023-04-12T04:06:10;6.60;99.90
9730;DHT22;4904;49.152;11.004;2023-04-12T04:08:37;6.60;99.90
9730;DHT22;4904;49.152;11.004;2023-04-12T04:11:04;6.60;99.90
9730;DHT22;4904;49.152;11.004;2023-04-12T04:13:31;6.70;99.90
9730;DHT22;4904;49.152;11.004;2023-04-12T04:16:02;6.80;99.90
9730;DHT22;4904;49.152;11.004;2023-04-12T04:18:29;6.90;99.90
9730;DHT22;4904;49.152;11.004;2023-04-12T04:20:57;6.90;99.90
9730;DHT22;4904;49.152;11.004;2023-04-12T04:23:24;6.90;99.90
9730;DHT22;4904;49.152;11.004;2023-04-12T04:25:52;6.90;99.90
9730;DHT22;4904;49.152;11.004;2023-04-12T04:28:19;6.80;99.90
9730;DHT22;4904;49.152;11.004;2023-04-12T04:30:45;6.90;99.90
9730;DHT22;4904;49.152;11.004;2023-04-12T04:33:14;6.80;99.90
9730;DHT22;4904;49.152;11.004;2023-04-12T04:35:41;6.80;99.90
9730;DHT22;4904;49.152;11.004;2023-04-12T04:38:08;6.80;99.90
9730;DHT22;4904;49.152;11.004;2023-04-12T04:40:36;6.70;99.90
9730;DHT22;4904;49.152;11.004;2023-04-12T04:43:03;6.70;99.90
9730;DHT22;4904;49.152;11.004;2023-04-12T04:45:31;6.70;99.90
9730;DHT22;4904;49.152;11.004;2023-04-12T04:47:57;6.70;99.90
9730;DHT22;4904;49.152;11.004;2023-04-12T04:50:27;6.80;99.90
9730;DHT22;4904;49.152;11.004;2023-04-12T04:52:53;6.80;99.90
9730;DHT22;4904;49.152;11.004;2023-04-12T04:55:20;6.80;99.90
9730;DHT22;4904;49.152;11.004;2023-04-12T04:57:49;6.80;99.90
9730;DHT22;4904;49.152;11.004;2023-04-12T05:00:16;6.90;99.90
9730;DHT22;4904;49.152;11.004;2023-04-12T05:02:43;6.80;99.90
9730;DHT22;4904;49.152;11.004;2023-04-12T05:05:11;6.80;99.90
9730;DHT22;4904;49.152;11.004;2023-04-12T05:07:39;6.80;99.90
9730;DHT22;4904;49.152;11.004;2023-04-12T05:10:09;6.80;99.90
9730;DHT22;4904;49.152;11.004;2023-04-12T05:12:36;6.80;99.90
9730;DHT22;4904;49.152;11.004;2023-04-12T05:15:04;6.70;99.90
9730;DHT22;4904;49.152;11.004;2023-04-12T05:17:31;6.80;99.90
9730;DHT22;4904;49.152;11.004;2023-04-12T05:19:58;6.80;99.90
9730;DHT22;4904;49.152;11.004;2023-04-12T05:22:25;6.90;99.90
9730;DHT22;4904;49.152;11.004;2023-04-12T05:24:55;6.90;99.90
9730;DHT22;4904;49.152;11.004;2023-04-12T05:27:23;7.00;99.90
9730;DHT22;4904;49.152;11.004;2023-04-12T05:29:52;7.00;99.90
9730;DHT22;4904;49.152;11.004;2023-04-12T05:32:19;7.10;99.90
9730;DHT22;4904;49.152;11.004;2023-04-12T05:34:45;7.20;99.90
9730;DHT22;4904;49.152;11.004;2023-04-12T05:37:12;7.30;99.90
9730;DHT22;4904;49.152;11.004;2023-04-12T05:39:39;7.30;99.90
9730;DHT22;4904;49.152;11.004;2023-04-12T05:42:08;7.30;99.90
9730;DHT22;4904;49.152;11.004;2023-04-12T05:44:35;7.20;99.90
9730;DHT22;4904;49.152;11.004;2023-04-12T05:47:02;7.20;99.90
9730;DHT22;4904;49.152;11.004;2023-04-12T05:49:29;7.20;99.90
9730;DHT22;4904;49.152;11.004;2023-04-12T05:51:57;7.10;99.90
9730;DHT22;4904;49.152;11.004;2023-04-12T05:54:24;7.10;99.90
9730;DHT22;4904;49.152;11.004;2023-04-12T05:56:51;7.10;99.90
9730;DHT22;4904;49.152;11.004;2023-04-12T05:59:20;7.10;99.90
9730;DHT22;4904;49.152;11.004;2023-04-12T06:01:47;7.00;99.90
9730;DHT22;4904;49.152;11.004;2023-04-12T06:04:14;7.00;99.90
9730;DHT22;4904;49.152;11.004;2023-04-12T06:06:41;7.00;99.90
9730;DHT22;4904;49.152;11.004;2023-04-12T06:09:09;7.00;99.90
9730;DHT22;4904;49.152;11.004;2023-04-12T06:11:36;7.00;99.90
9730;DHT22;4904;49.152;11.004;2023-04-12T06:14:03;7.10;99.90
9730;DHT22;4904;49.152;11.004;2023-04-12T06:16:31;7.10;99.90
9730;DHT22;4904;49.152;11.004;2023-04-12T06:18:58;7.10;99.90
9730;DHT22;4904;49.152;11.004;2023-04-12T06:21:25;7.20;99.90
9730;DHT22;4904;49.152;11.004;2023-04-12T06:23:52;7.20;99.90
9730;DHT22;4904;49.152;11.004;2023-04-12T06:26:19;7.20;99.90
9730;DHT22;4904;49.152;11.004;2023-04-12T06:28:46;7.20;99.90
9730;DHT22;4904;49.152;11.004;2023-04-12T06:31:14;7.30;99.90
9730;DHT22;4904;49.152;11.004;2023-04-12T06:33:42;7.30;99.90
9730;DHT22;4904;49.152;11.004;2023-04-12T06:36:09;7.30;99.90
9730;DHT22;4904;49.152;11.004;2023-04-12T06:38:37;7.20;99.90
9730;DHT22;4904;49.152;11.004;2023-04-12T06:41:04;7.10;99.90
9730;DHT22;4904;49.152;11.004;2023-04-12T06:43:31;7.00;99.90
9730;DHT22;4904;49.152;11.004;2023-04-12T06:45:58;6.90;99.90
9730;DHT22;4904;49.152;11.004;2023-04-12T06:48:27;6.90;99.90
9730;DHT22;4904;49.152;11.004;2023-04-12T06:50:55;6.90;99.90
9730;DHT22;4904;49.152;11.004;2023-04-12T06:53:22;6.90;99.90
9730;DHT22;4904;49.152;11.004;2023-04-12T06:55:49;6.90;99.90
9730;DHT22;4904;49.152;11.004;2023-04-12T06:58:18;7.00;99.90
9730;DHT22;4904;49.152;11.004;2023-04-12T07:00:45;7.00;99.90
9730;DHT22;4904;49.152;11.004;2023-04-12T07:03:12;7.00;99.90
9730;DHT22;4904;49.152;11.004;2023-04-12T07:05:41;7.00;99.90
9730;DHT22;4904;49.152;11.004;2023-04-12T07:08:09;7.00;99.90
9730;DHT22;4904;49.152;11.004;2023-04-12T07:10:36;7.10;99.90
9730;DHT22;4904;49.152;11.004;2023-04-12T07:13:03;7.20;99.90
9730;DHT22;4904;49.152;11.004;2023-04-12T07:15:32;7.00;99.90
9730;DHT22;4904;49.152;11.004;2023-04-12T07:17:59;7.00;99.90
9730;DHT22;4904;49.152;11.004;2023-04-12T07:20:26;7.00;99.90
9730;DHT22;4904;49.152;11.004;2023-04-12T07:22:53;7.10;99.90
9730;DHT22;4904;49.152;11.004;2023-04-12T07:25:21;7.10;99.90
9730;DHT22;4904;49.152;11.004;2023-04-12T07:27:48;7.30;99.90
9730;DHT22;4904;49.152;11.004;2023-04-12T07:30:15;7.30;99.90
9730;DHT22;4904;49.152;11.004;2023-04-12T07:32:42;7.20;99.90
9730;DHT22;4904;49.152;11.004;2023-04-12T07:35:09;7.30;99.90
9730;DHT22;4904;49.152;11.004;2023-04-12T07:37:36;7.30;99.90
9730;DHT22;4904;49.152;11.004;2023-04-12T07:40:04;7.30;99.90
9730;DHT22;4904;49.152;11.004;2023-04-12T07:42:33;7.30;99.90
9730;DHT22;4904;49.152;11.004;2023-04-12T07:45:00;7.30;99.90
9730;DHT22;4904;49.152;11.004;2023-04-12T07:47:26;7.30;99.90
9730;DHT22;4904;49.152;11.004;2023-04-12T07:49:53;7.40;99.90
9730;DHT22;4904;49.152;11.004;2023-04-12T07:52:21;7.50;99.90
9730;DHT22;4904;49.152;11.004;2023-04-12T07:54:48;7.50;99.90
9730;DHT22;4904;49.152;11.004;2023-04-12T07:57:15;7.50;99.90
9730;DHT22;4904;49.152;11.004;2023-04-12T07:59:43;7.40;99.90
9730;DHT22;4904;49.152;11.004;2023-04-12T08:02:10;7.50;99.90
9730;DHT22;4904;49.152;11.004;2023-04-12T08:04:37;7.50;99.90
9730;DHT22;4904;49.152;11.004;2023-04-12T08:07:06;7.50;99.90
9730;DHT22;4904;49.152;11.004;2023-04-12T08:09:33;7.60;99.90
9730;DHT22;4904;49.152;11.004;2023-04-12T08:12:00;7.60;99.90
9730;DHT22;4904;49.152;11.004;2023-04-12T08:14:28;7.70;99.90
9730;DHT22;4904;49.152;11.004;2023-04-12T08:16:56;7.70;99.90
9730;DHT22;4904;49.152;11.004;2023-04-12T08:19:23;7.70;99.90
9730;DHT22;4904;49.152;11.004;2023-04-12T08:21:50;7.70;99.90
9730;DHT22;4904;49.152;11.004;2023-04-12T08:24:17;7.80;99.90
9730;DHT22;4904;49.152;11.004;2023-04-12T08:26:44;7.80;99.90
9730;DHT22;4904;49.152;11.004;2023-04-12T08:29:11;7.90;99.90
9730;DHT22;4904;49.152;11.004;2023-04-12T08:31:38;7.90;99.90
9730;DHT22;4904;49.152;11.004;2023-04-12T08:34:07;8.10;99.90
9730;DHT22;4904;49.152;11.004;2023-04-12T08:36:34;7.90;99.90
9730;DHT22;4904;49.152;11.004;2023-04-12T08:39:00;8.00;99.90
9730;DHT22;4904;49.152;11.004;2023-04-12T08:41:28;8.00;99.90
9730;DHT22;4904;49.152;11.004;2023-04-12T08:43:55;8.10;99.90
9730;DHT22;4904;49.152;11.004;2023-04-12T08:46:22;8.10;99.90
9730;DHT22;4904;49.152;11.004;2023-04-12T08:48:51;8.10;99.90
9730;DHT22;4904;49.152;11.004;2023-04-12T08:51:21;8.10;99.90
9730;DHT22;4904;49.152;11.004;2023-04-12T08:53:48;8.20;99.90
9730;DHT22;4904;49.152;11.004;2023-04-12T08:56:16;8.30;99.90
9730;DHT22;4904;49.152;11.004;2023-04-12T08:58:45;8.30;99.90
9730;DHT22;4904;49.152;11.004;2023-04-12T09:01:14;8.40;99.90
9730;DHT22;4904;49.152;11.004;2023-04-12T09:03:42;8.40;99.90
9730;DHT22;4904;49.152;11.004;2023-04-12T09:06:09;8.50;99.90
9730;DHT22;4904;49.152;11.004;2023-04-12T09:08:50;8.50;99.90
9730;DHT22;4904;49.152;11.004;2023-04-12T09:11:24;8.50;99.90
9730;DHT22;4904;49.152;11.004;2023-04-12T09:13:52;8.60;99.90
9730;DHT22;4904;49.152;11.004;2023-04-12T09:16:35;8.60;99.90
9730;DHT22;4904;49.152;11.004;2023-04-12T09:19:02;8.60;99.90
9730;DHT22;4904;49.152;11.004;2023-04-12T09:21:30;8.60;99.90
9730;DHT22;4904;49.152;11.004;2023-04-12T09:24:06;8.60;99.90
9730;DHT22;4904;49.152;11.004;2023-04-12T09:26:35;8.60;99.90
9730;DHT22;4904;49.152;11.004;2023-04-12T09:29:02;8.70;99.90
9730;DHT22;4904;49.152;11.004;2023-04-12T09:31:30;8.70;99.90
9730;DHT22;4904;49.152;11.004;2023-04-12T09:34:05;8.70;99.90
9730;DHT22;4904;49.152;11.004;2023-04-12T09:36:36;8.80;99.90
9730;DHT22;4904;49.152;11.004;2023-04-12T09:39:06;8.80;99.90
9730;DHT22;4904;49.152;11.004;2023-04-12T09:41:33;8.90;99.90
9730;DHT22;4904;49.152;11.004;2023-04-12T09:44:01;8.90;99.90
9730;DHT22;4904;49.152;11.004;2023-04-12T09:46:28;8.90;99.90
9730;DHT22;4904;49.152;11.004;2023-04-12T09:48:56;8.90;99.90
9730;DHT22;4904;49.152;11.004;2023-04-12T09:51:24;9.00;99.90
9730;DHT22;4904;49.152;11.004;2023-04-12T09:53:54;9.00;99.90
9730;DHT22;4904;49.152;11.004;2023-04-12T09:56:27;9.00;99.90
9730;DHT22;4904;49.152;11.004;2023-04-12T09:58:56;9.00;99.90
9730;DHT22;4904;49.152;11.004;2023-04-12T10:01:25;9.00;99.90
9730;DHT22;4904;49.152;11.004;2023-04-12T10:03:54;9.00;99.90
9730;DHT22;4904;49.152;11.004;2023-04-12T10:06:21;9.00;99.90
9730;DHT22;4904;49.152;11.004;2023-04-12T10:08:48;9.10;99.90
9730;DHT22;4904;49.152;11.004;2023-04-12T10:11:16;9.10;99.90
9730;DHT22;4904;49.152;11.004;2023-04-12T10:13:46;9.20;99.90
9730;DHT22;4904;49.152;11.004;2023-04-12T10:16:14;9.20;99.90
9730;DHT22;4904;49.152;11.004;2023-04-12T10:18:42;9.30;99.90
9730;DHT22;4904;49.152;11.004;2023-04-12T10:21:10;9.30;99.90
9730;DHT22;4904;49.152;11.004;2023-04-12T10:23:38;9.30;99.90
9730;DHT22;4904;49.152;11.004;2023-04-12T10:26:05;9.30;99.90
9730;DHT22;4904;49.152;11.004;2023-04-12T10:28:32;9.30;99.90
9730;DHT22;4904;49.152;11.004;2023-04-12T10:31:27;9.30;99.90
9730;DHT22;4904;49.152;11.004;2023-04-12T10:33:55;9.40;99.90
9730;DHT22;4904;49.152;11.004;2023-04-12T10:36:52;9.40;99.90
9730;DHT22;4904;49.152;11.004;2023-04-12T10:39:35;9.50;99.90
9730;DHT22;4904;49.152;11.004;2023-04-12T10:42:30;9.40;99.90
9730;DHT22;4904;49.152;11.004;2023-04-12T10:48:02;9.40;99.90
9730;DHT22;4904;49.152;11.004;2023-04-12T10:50:31;9.50;99.90
9730;DHT22;4904;49.152;11.004;2023-04-12T10:53:29;9.40;99.90
9730;DHT22;4904;49.152;11.004;2023-04-12T10:55:56;9.40;99.90
9730;DHT22;4904;49.152;11.004;2023-04-12T11:01:31;9.50;99.90
9730;DHT22;4904;49.152;11.004;2023-04-12T11:04:15;9.50;99.90
9730;DHT22;4904;49.152;11.004;2023-04-12T11:06:55;9.50;99.90
9730;DHT22;4904;49.152;11.004;2023-04-12T11:09:25;9.70;99.90
9730;DHT22;4904;49.152;11.004;2023-04-12T11:11:56;9.70;99.90
9730;DHT22;4904;49.152;11.004;2023-04-12T11:14:28;9.80;99.90
9730;DHT22;4904;49.152;11.004;2023-04-12T11:17:19;9.80;99.90
9730;DHT22;4904;49.152;11.004;2023-04-12T11:19:50;9.90;99.90
9730;DHT22;4904;49.152;11.004;2023-04-12T11:22:18;9.90;99.90
9730;DHT22;4904;49.152;11.004;2023-04-12T11:24:47;10.00;99.90
9730;DHT22;4904;49.152;11.004;2023-04-12T11:27:15;10.10;99.90
9730;DHT22;4904;49.152;11.004;2023-04-12T11:29:42;10.00;99.90
9730;DHT22;4904;49.152;11.004;2023-04-12T11:32:12;9.90;99.90
9730;DHT22;4904;49.152;11.004;2023-04-12T11:34:40;10.00;99.90
9730;DHT22;4904;49.152;11.004;2023-04-12T11:37:09;9.90;99.90
9730;DHT22;4904;49.152;11.004;2023-04-12T11:39:38;10.00;99.90
9730;DHT22;4904;49.152;11.004;2023-04-12T11:42:06;10.00;99.90
9730;DHT22;4904;49.152;11.004;2023-04-12T11:44:34;10.00;99.90
9730;DHT22;4904;49.152;11.004;2023-04-12T11:47:02;10.10;99.90
9730;DHT22;4904;49.152;11.004;2023-04-12T11:49:29;10.10;99.90
9730;DHT22;4904;49.152;11.004;2023-04-12T11:52:03;10.10;99.90
9730;DHT22;4904;49.152;11.004;2023-04-12T11:54:31;10.10;99.90
9730;DHT22;4904;49.152;11.004;2023-04-12T11:56:59;10.10;99.90
9730;DHT22;4904;49.152;11.004;2023-04-12T11:59:31;10.10;99.90
9730;DHT22;4904;49.152;11.004;2023-04-12T12:01:59;10.10;99.90
9730;DHT22;4904;49.152;11.004;2023-04-12T12:04:27;10.10;99.90
9730;DHT22;4904;49.152;11.004;2023-04-12T12:06:55;10.10;99.90
9730;DHT22;4904;49.152;11.004;2023-04-12T12:09:24;10.20;99.90
9730;DHT22;4904;49.152;11.004;2023-04-12T12:11:53;10.20;99.90
9730;DHT22;4904;49.152;11.004;2023-04-12T12:14:21;10.20;99.90
9730;DHT22;4904;49.152;11.004;2023-04-12T12:16:52;10.40;99.90
9730;DHT22;4904;49.152;11.004;2023-04-12T12:19:27;10.40;99.90
9730;DHT22;4904;49.152;11.004;2023-04-12T12:22:08;10.40;99.90
9730;DHT22;4904;49.152;11.004;2023-04-12T12:24:36;10.50;99.90
9730;DHT22;4904;49.152;11.004;2023-04-12T12:27:04;10.50;99.90
9730;DHT22;4904;49.152;11.004;2023-04-12T12:29:35;10.60;99.90
9730;DHT22;4904;49.152;11.004;2023-04-12T12:32:08;10.60;99.90
9730;DHT22;4904;49.152;11.004;2023-04-12T12:34:35;10.70;99.90
9730;DHT22;4904;49.152;11.004;2023-04-12T12:37:06;10.80;99.90
9730;DHT22;4904;49.152;11.004;2023-04-12T12:39:34;11.00;99.90
9730;DHT22;4904;49.152;11.004;2023-04-12T12:42:01;11.00;99.90
9730;DHT22;4904;49.152;11.004;2023-04-12T12:44:32;11.00;99.90
9730;DHT22;4904;49.152;11.004;2023-04-12T12:47:00;11.00;99.90
9730;DHT22;4904;49.152;11.004;2023-04-12T12:49:28;11.10;99.90
9730;DHT22;4904;49.152;11.004;2023-04-12T12:51:55;11.00;99.90
9730;DHT22;4904;49.152;11.004;2023-04-12T12:54:22;11.10;99.90
9730;DHT22;4904;49.152;11.004;2023-04-12T12:56:50;11.10;99.90
9730;DHT22;4904;49.152;11.004;2023-04-12T12:59:17;11.10;99.90
9730;DHT22;4904;49.152;11.004;2023-04-12T13:01:45;11.10;99.90
9730;DHT22;4904;49.152;11.004;2023-04-12T13:04:12;11.20;99.90
9730;DHT22;4904;49.152;11.004;2023-04-12T13:06:39;11.20;99.90
9730;DHT22;4904;49.152;11.004;2023-04-12T13:09:06;11.20;99.90
9730;DHT22;4904;49.152;11.004;2023-04-12T13:11:33;11.30;99.90
9730;DHT22;4904;49.152;11.004;2023-04-12T13:14:01;11.30;99.90
9730;DHT22;4904;49.152;11.004;2023-04-12T13:16:28;11.30;99.90
9730;DHT22;4904;49.152;11.004;2023-04-12T13:18:56;11.30;99.90
9730;DHT22;4904;49.152;11.004;2023-04-12T13:21:23;11.30;99.90
9730;DHT22;4904;49.152;11.004;2023-04-12T13:23:51;11.40;99.90
9730;DHT22;4904;49.152;11.004;2023-04-12T13:26:18;11.30;99.90
9730;DHT22;4904;49.152;11.004;2023-04-12T13:28:45;11.30;99.90
9730;DHT22;4904;49.152;11.004;2023-04-12T13:31:12;11.30;99.90
9730;DHT22;4904;49.152;11.004;2023-04-12T13:33:39;11.20;99.90
9730;DHT22;4904;49.152;11.004;2023-04-12T13:36:08;11.30;99.90
9730;DHT22;4904;49.152;11.004;2023-04-12T13:38:35;11.40;99.90
9730;DHT22;4904;49.152;11.004;2023-04-12T13:41:03;11.40;99.90
9730;DHT22;4904;49.152;11.004;2023-04-12T13:43:30;11.40;99.90
9730;DHT22;4904;49.152;11.004;2023-04-12T13:45:57;11.50;99.90
9730;DHT22;4904;49.152;11.004;2023-04-12T13:48:24;11.50;99.90
9730;DHT22;4904;49.152;11.004;2023-04-12T13:50:51;11.50;99.90
9730;DHT22;4904;49.152;11.004;2023-04-12T13:53:19;11.50;99.90
9730;DHT22;4904;49.152;11.004;2023-04-12T13:55:46;11.50;99.90
9730;DHT22;4904;49.152;11.004;2023-04-12T13:58:14;11.50;99.90
9730;DHT22;4904;49.152;11.004;2023-04-12T14:00:42;11.60;99.90
9730;DHT22;4904;49.152;11.004;2023-04-12T14:03:09;11.70;99.90
9730;DHT22;4904;49.152;11.004;2023-04-12T14:05:36;11.70;99.90
9730;DHT22;4904;49.152;11.004;2023-04-12T14:08:04;11.70;99.90
9730;DHT22;4904;49.152;11.004;2023-04-12T14:10:32;11.80;99.90
9730;DHT22;4904;49.152;11.004;2023-04-12T14:12:59;11.80;99.90
9730;DHT22;4904;49.152;11.004;2023-04-12T14:15:26;11.90;99.90
9730;DHT22;4904;49.152;11.004;2023-04-12T14:17:53;11.90;99.90
9730;DHT22;4904;49.152;11.004;2023-04-12T14:20:20;12.00;99.90
9730;DHT22;4904;49.152;11.004;2023-04-12T14:22:48;12.20;99.90
9730;DHT22;4904;49.152;11.004;2023-04-12T14:25:15;12.40;99.90
9730;DHT22;4904;49.152;11.004;2023-04-12T14:27:43;12.50;99.90
9730;DHT22;4904;49.152;11.004;2023-04-12T14:30:11;12.60;99.90
9730;DHT22;4904;49.152;11.004;2023-04-12T14:32:38;12.70;99.90
9730;DHT22;4904;49.152;11.004;2023-04-12T14:35:06;12.70;99.90
9730;DHT22;4904;49.152;11.004;2023-04-12T14:37:34;12.70;99.90
9730;DHT22;4904;49.152;11.004;2023-04-12T14:40:01;12.70;99.90
9730;DHT22;4904;49.152;11.004;2023-04-12T14:42:31;12.80;99.90
9730;DHT22;4904;49.152;11.004;2023-04-12T14:44:59;12.80;99.90
9730;DHT22;4904;49.152;11.004;2023-04-12T14:47:26;12.80;99.90
9730;DHT22;4904;49.152;11.004;2023-04-12T14:49:53;12.90;99.90
9730;DHT22;4904;49.152;11.004;2023-04-12T14:52:20;13.00;99.90
9730;DHT22;4904;49.152;11.004;2023-04-12T14:54:48;13.00;99.90
9730;DHT22;4904;49.152;11.004;2023-04-12T14:57:14;13.00;99.90
9730;DHT22;4904;49.152;11.004;2023-04-12T14:59:42;13.10;99.90
9730;DHT22;4904;49.152;11.004;2023-04-12T15:02:10;13.20;99.90
9730;DHT22;4904;49.152;11.004;2023-04-12T15:04:37;13.30;99.90
9730;DHT22;4904;49.152;11.004;2023-04-12T15:07:04;13.30;99.90
9730;DHT22;4904;49.152;11.004;2023-04-12T15:09:32;13.30;99.90
9730;DHT22;4904;49.152;11.004;2023-04-12T15:11:59;13.30;99.90
9730;DHT22;4904;49.152;11.004;2023-04-12T15:14:26;13.40;99.90
9730;DHT22;4904;49.152;11.004;2023-04-12T15:16:54;13.40;99.90
9730;DHT22;4904;49.152;11.004;2023-04-12T15:19:23;13.40;99.90
9730;DHT22;4904;49.152;11.004;2023-04-12T15:21:50;13.40;99.90
9730;DHT22;4904;49.152;11.004;2023-04-12T15:24:20;13.30;99.90
9730;DHT22;4904;49.152;11.004;2023-04-12T15:26:47;13.30;99.90
9730;DHT22;4904;49.152;11.004;2023-04-12T15:29:16;13.20;99.90
9730;DHT22;4904;49.152;11.004;2023-04-12T15:31:44;13.20;99.90
9730;DHT22;4904;49.152;11.004;2023-04-12T15:34:11;13.20;99.90
9730;DHT22;4904;49.152;11.004;2023-04-12T15:36:40;13.20;99.90
9730;DHT22;4904;49.152;11.004;2023-04-12T15:39:08;13.30;99.90
9730;DHT22;4904;49.152;11.004;2023-04-12T15:41:37;13.30;99.90
9730;DHT22;4904;49.152;11.004;2023-04-12T15:44:04;13.20;99.90
9730;DHT22;4904;49.152;11.004;2023-04-12T15:46:31;13.10;99.90
9730;DHT22;4904;49.152;11.004;2023-04-12T15:48:58;13.10;99.90
9730;DHT22;4904;49.152;11.004;2023-04-12T15:51:26;13.10;99.90
9730;DHT22;4904;49.152;11.004;2023-04-12T15:53:55;13.20;99.90
9730;DHT22;4904;49.152;11.004;2023-04-12T15:56:22;13.50;99.90
9730;DHT22;4904;49.152;11.004;2023-04-12T15:58:49;13.80;99.90
9730;DHT22;4904;49.152;11.004;2023-04-12T16:01:17;14.20;99.90
9730;DHT22;4904;49.152;11.004;2023-04-12T16:03:45;14.60;99.90
9730;DHT22;4904;49.152;11.004;2023-04-12T16:06:13;14.90;99.90
9730;DHT22;4904;49.152;11.004;2023-04-12T16:08:45;15.00;99.90
9730;DHT22;4904;49.152;11.004;2023-04-12T16:11:14;15.00;99.90